createdAt,value
2019-03-03T00:00:33.609Z,8.00
2019-03-03T00:03:02.369Z,7.42
2019-03-03T00:05:31.120Z,7.85
2019-03-03T00:07:59.852Z,7.60
2019-03-03T00:10:28.621Z,7.95
2019-03-03T00:12:57.417Z,7.92
2019-03-03T00:15:26.180Z,8.20
2019-03-03T00:17:54.905Z,7.85
2019-03-03T00:20:23.721Z,7.60
2019-03-03T00:22:52.453Z,7.95
2019-03-03T00:25:21.222Z,7.28
2019-03-03T00:27:49.954Z,7.58
2019-03-03T00:30:19.813Z,7.35
2019-03-03T00:32:48.689Z,7.83
2019-03-03T00:35:17.625Z,8.10
2019-03-03T00:38:04.113Z,7.60
2019-03-03T00:40:43.821Z,7.47
2019-03-03T00:43:30.533Z,7.92
2019-03-03T00:46:17.173Z,8.03
2019-03-03T00:49:02.958Z,7.42
2019-03-03T00:51:33.360Z,7.55
2019-03-03T00:54:20.421Z,7.28
2019-03-03T00:56:50.826Z,7.95
2019-03-03T00:59:30.419Z,7.83
2019-03-03T01:02:00.824Z,7.42
2019-03-03T01:04:37.258Z,7.95
2019-03-03T01:07:23.950Z,7.93
2019-03-03T01:10:00.395Z,8.05
2019-03-03T01:12:46.118Z,7.35
2019-03-03T01:15:34.657Z,8.00
2019-03-03T01:18:17.110Z,7.60
2019-03-03T01:20:53.882Z,7.78
2019-03-03T01:23:27.365Z,7.78
2019-03-03T01:25:56.129Z,7.87
2019-03-03T01:28:24.865Z,7.67
2019-03-03T01:30:53.625Z,7.60
2019-03-03T01:33:22.365Z,7.37
2019-03-03T01:35:51.125Z,7.42
2019-03-03T01:38:22.868Z,7.47
2019-03-03T01:40:51.672Z,6.65
2019-03-03T01:43:20.477Z,7.07
2019-03-03T01:45:49.307Z,7.30
2019-03-03T01:48:18.037Z,6.95
2019-03-03T01:50:46.865Z,6.62
2019-03-03T01:53:15.633Z,6.70
2019-03-03T01:55:44.377Z,7.00
2019-03-03T01:58:13.129Z,6.60
2019-03-03T02:00:42.369Z,7.08
2019-03-03T02:03:11.130Z,6.97
2019-03-03T02:05:39.949Z,6.87
2019-03-03T02:08:08.773Z,6.97
2019-03-03T02:10:37.505Z,6.95
2019-03-03T02:13:06.865Z,7.17
2019-03-03T02:15:35.617Z,7.30
2019-03-03T02:18:04.628Z,6.92
2019-03-03T02:20:33.390Z,6.80
2019-03-03T02:23:02.256Z,7.25
2019-03-03T02:25:31.157Z,6.95
2019-03-03T02:27:59.993Z,6.62
2019-03-03T02:30:28.801Z,6.53
2019-03-03T02:32:57.571Z,6.53
2019-03-03T02:35:26.337Z,6.45
2019-03-03T02:37:55.111Z,6.40
2019-03-03T02:40:24.052Z,6.17
2019-03-03T02:42:52.797Z,5.92
2019-03-03T02:45:21.550Z,6.10
2019-03-03T02:47:50.284Z,5.90
2019-03-03T02:50:19.057Z,5.72
2019-03-03T02:52:47.782Z,6.00
2019-03-03T02:55:17.452Z,5.70
2019-03-03T02:57:46.229Z,5.72
2019-03-03T03:00:20.340Z,5.95
2019-03-03T03:02:50.346Z,5.67
2019-03-03T03:05:24.957Z,5.70
2019-03-03T03:08:01.373Z,5.75
2019-03-03T03:10:31.783Z,5.90
2019-03-03T03:13:07.755Z,5.50
2019-03-03T03:15:48.819Z,5.70
2019-03-03T03:18:30.900Z,5.62
2019-03-03T03:21:01.702Z,5.17
2019-03-03T03:23:32.108Z,5.47
2019-03-03T03:26:02.520Z,5.33
2019-03-03T03:28:32.915Z,5.15
2019-03-03T03:31:09.074Z,5.20
2019-03-03T03:33:39.509Z,5.30
2019-03-03T03:36:09.846Z,5.08
2019-03-03T03:38:42.948Z,4.70
2019-03-03T03:41:22.526Z,4.90
2019-03-03T03:44:01.828Z,4.55
2019-03-03T03:46:32.202Z,4.80
2019-03-03T03:49:17.634Z,4.80
2019-03-03T03:51:51.165Z,4.67
2019-03-03T03:54:37.734Z,4.75
2019-03-03T03:57:20.143Z,4.83
2019-03-03T03:59:56.794Z,4.53
2019-03-03T04:02:35.930Z,4.80
2019-03-03T04:05:10.790Z,4.62
2019-03-03T04:07:41.164Z,4.60
2019-03-03T04:10:20.527Z,4.80
2019-03-03T04:12:53.934Z,4.70
2019-03-03T04:15:27.290Z,4.65
2019-03-03T04:17:57.664Z,4.90
2019-03-03T04:20:28.053Z,4.97
2019-03-03T04:22:58.425Z,5.03
2019-03-03T04:25:28.828Z,5.10
2019-03-03T04:28:08.486Z,5.00
2019-03-03T04:30:38.885Z,5.28
2019-03-03T04:33:09.269Z,5.35
2019-03-03T04:35:39.687Z,5.15
2019-03-03T04:38:22.133Z,5.47
2019-03-03T04:41:08.793Z,5.08
2019-03-03T04:43:39.169Z,5.12
2019-03-03T04:46:15.674Z,5.10
2019-03-03T04:49:04.162Z,5.90
2019-03-03T04:51:40.610Z,5.35
2019-03-03T04:54:27.238Z,5.50
2019-03-03T04:57:06.442Z,5.58
2019-03-03T04:59:42.573Z,5.70
2019-03-03T05:02:15.970Z,5.97
2019-03-03T05:04:46.348Z,5.70
2019-03-03T05:07:25.814Z,5.20
2019-03-03T05:09:56.186Z,5.60
2019-03-03T05:12:26.801Z,5.33
2019-03-03T05:15:13.385Z,5.10
2019-03-03T05:17:46.613Z,5.28
2019-03-03T05:20:18.829Z,5.30
2019-03-03T05:22:47.663Z,5.00
2019-03-03T05:25:16.404Z,4.97
2019-03-03T05:27:45.171Z,4.80
2019-03-03T05:30:15.093Z,4.20
2019-03-03T05:32:43.825Z,3.83
2019-03-03T05:35:12.591Z,4.35
2019-03-03T05:37:41.317Z,4.00
2019-03-03T05:40:10.185Z,4.00
2019-03-03T05:42:38.913Z,3.93
2019-03-03T05:45:07.875Z,3.52
2019-03-03T05:47:36.597Z,3.70
2019-03-03T05:50:06.525Z,3.55
2019-03-03T05:52:35.253Z,3.50
2019-03-03T05:55:04.617Z,3.77
2019-03-03T05:57:33.357Z,4.00
2019-03-03T06:00:02.227Z,3.85
2019-03-03T06:02:31.024Z,3.62
2019-03-03T06:04:59.785Z,3.77
2019-03-03T06:07:28.514Z,3.30
2019-03-03T06:09:57.374Z,3.90
2019-03-03T06:12:26.150Z,3.70
2019-03-03T06:14:55.944Z,3.95
2019-03-03T06:17:24.801Z,3.20
2019-03-03T06:19:53.619Z,3.50
2019-03-03T06:22:22.446Z,3.83
2019-03-03T06:24:51.178Z,3.50
2019-03-03T06:27:20.017Z,3.72
2019-03-03T06:29:48.749Z,3.52
2019-03-03T06:32:17.526Z,3.33
2019-03-03T06:34:46.347Z,3.60
2019-03-03T06:37:15.133Z,3.60
2019-03-03T06:39:43.861Z,3.22
2019-03-03T06:42:12.797Z,3.08
2019-03-03T06:44:41.521Z,3.77
2019-03-03T06:47:10.325Z,3.40
2019-03-03T06:49:39.062Z,3.20
2019-03-03T06:52:07.793Z,3.30
2019-03-03T06:54:36.557Z,3.40
2019-03-03T06:57:05.357Z,3.30
2019-03-03T06:59:34.127Z,3.20
2019-03-03T07:02:02.921Z,3.87
2019-03-03T07:04:31.693Z,5.25
2019-03-03T07:07:00.426Z,3.60
2019-03-03T07:09:29.187Z,2.92
2019-03-03T07:11:57.921Z,2.95
2019-03-03T07:14:26.677Z,2.77
2019-03-03T07:16:55.434Z,2.98
2019-03-03T07:19:24.189Z,2.90
2019-03-03T07:21:52.926Z,2.50
2019-03-03T07:24:21.673Z,2.37
2019-03-03T07:26:50.401Z,2.37
2019-03-03T07:29:19.160Z,2.40
2019-03-03T07:31:47.923Z,2.27
2019-03-03T07:34:16.654Z,1.90
2019-03-03T07:36:45.429Z,2.10
2019-03-03T07:39:18.354Z,1.80
2019-03-03T07:41:47.130Z,1.98
2019-03-03T07:44:15.862Z,1.65
2019-03-03T07:46:44.621Z,1.70
2019-03-03T07:49:13.511Z,1.82
2019-03-03T07:51:42.275Z,1.70
2019-03-03T07:54:11.006Z,1.90
2019-03-03T07:56:39.765Z,2.10
2019-03-03T07:59:08.565Z,1.90
2019-03-03T08:01:37.434Z,1.90
2019-03-03T08:04:06.166Z,1.87
2019-03-03T08:06:34.905Z,1.85
2019-03-03T08:09:05.033Z,1.92
2019-03-03T08:11:33.765Z,1.98
2019-03-03T08:14:02.518Z,1.87
2019-03-03T08:16:31.353Z,1.85
2019-03-03T08:19:00.122Z,1.70
2019-03-03T08:21:28.929Z,1.77
2019-03-03T08:23:57.754Z,2.03
2019-03-03T08:26:26.499Z,1.90
2019-03-03T08:28:55.249Z,1.87
2019-03-03T08:31:23.981Z,1.75
2019-03-03T08:33:53.046Z,2.58
2019-03-03T08:36:21.861Z,1.95
2019-03-03T08:38:50.625Z,1.80
2019-03-03T08:41:19.356Z,1.80
2019-03-03T08:43:52.210Z,1.75
2019-03-03T08:46:22.581Z,2.10
2019-03-03T08:49:08.343Z,2.25
2019-03-03T08:51:38.710Z,1.80
2019-03-03T08:54:15.026Z,1.87
2019-03-03T08:56:45.405Z,2.00
2019-03-03T08:59:15.841Z,2.20
2019-03-03T09:01:48.922Z,2.30
2019-03-03T09:04:22.173Z,2.25
2019-03-03T09:06:52.762Z,1.92
2019-03-03T09:09:39.502Z,2.12
2019-03-03T09:12:09.881Z,2.10
2019-03-03T09:14:56.881Z,1.92
2019-03-03T09:17:27.265Z,1.80
2019-03-03T09:20:00.440Z,1.92
2019-03-03T09:22:30.862Z,2.00
2019-03-03T09:25:01.221Z,1.60
2019-03-03T09:27:37.746Z,1.80
2019-03-03T09:30:20.257Z,1.85
2019-03-03T09:32:50.637Z,2.12
2019-03-03T09:35:21.046Z,2.15
2019-03-03T09:37:51.416Z,1.90
2019-03-03T09:40:36.840Z,1.40
2019-03-03T09:43:23.749Z,1.98
2019-03-03T09:46:03.129Z,1.60
2019-03-03T09:48:50.305Z,1.52
2019-03-03T09:51:20.713Z,1.95
2019-03-03T09:54:07.261Z,1.67
2019-03-03T09:56:37.665Z,2.40
2019-03-03T09:59:22.794Z,1.60
2019-03-03T10:01:56.265Z,1.50
2019-03-03T10:04:32.572Z,1.47
2019-03-03T10:07:21.668Z,1.30
2019-03-03T10:09:52.057Z,1.40
2019-03-03T10:12:26.698Z,1.37
2019-03-03T10:15:09.385Z,2.40
2019-03-03T10:17:39.800Z,1.30
2019-03-03T10:20:23.766Z,1.30
2019-03-03T10:23:08.942Z,1.30
2019-03-03T10:25:42.057Z,1.25
2019-03-03T10:28:24.274Z,1.82
2019-03-03T10:30:54.645Z,1.57
2019-03-03T10:33:41.378Z,1.37
2019-03-03T10:36:11.749Z,1.60
2019-03-03T10:38:58.066Z,1.32
2019-03-03T10:41:31.430Z,1.20
2019-03-03T10:44:07.769Z,1.40
2019-03-03T10:46:47.201Z,1.37
2019-03-03T10:49:17.607Z,1.67
2019-03-03T10:51:47.985Z,1.45
2019-03-03T10:54:26.896Z,1.20
2019-03-03T10:56:59.989Z,1.57
2019-03-03T10:59:30.395Z,1.50
2019-03-03T11:02:12.778Z,1.60
2019-03-03T11:04:43.185Z,1.45
2019-03-03T11:07:16.345Z,1.42
2019-03-03T11:09:50.035Z,1.22
2019-03-03T11:12:26.616Z,1.40
2019-03-03T11:15:00.779Z,1.32
2019-03-03T11:17:40.045Z,1.52
2019-03-03T11:20:23.289Z,1.27
2019-03-03T11:22:56.428Z,1.40
2019-03-03T11:25:29.921Z,1.60
2019-03-03T11:28:00.294Z,1.20
2019-03-03T11:30:30.706Z,1.40
2019-03-03T11:33:17.382Z,1.25
2019-03-03T11:35:47.783Z,1.60
2019-03-03T11:38:23.857Z,1.92
2019-03-03T11:40:56.963Z,1.67
2019-03-03T11:43:36.481Z,1.98
2019-03-03T11:46:06.993Z,1.55
2019-03-03T11:48:43.649Z,1.50
2019-03-03T11:51:14.057Z,2.10
2019-03-03T11:53:59.580Z,1.40
2019-03-03T11:56:39.017Z,2.45
2019-03-03T11:59:12.437Z,1.62
2019-03-03T12:01:59.397Z,1.40
2019-03-03T12:04:42.110Z,1.30
2019-03-03T12:07:24.425Z,1.30
2019-03-03T12:10:11.376Z,1.75
2019-03-03T12:12:44.609Z,1.67
2019-03-03T12:15:32.849Z,1.40
2019-03-03T12:18:06.093Z,1.37
2019-03-03T12:20:36.474Z,1.63
2019-03-03T12:23:24.268Z,1.30
2019-03-03T12:26:06.713Z,1.70
2019-03-03T12:28:53.650Z,1.60
2019-03-03T12:31:40.252Z,1.67
2019-03-03T12:34:20.025Z,1.47
2019-03-03T12:36:56.161Z,1.50
2019-03-03T12:39:42.818Z,1.40
2019-03-03T12:42:16.285Z,1.72
2019-03-03T12:44:49.627Z,1.72
2019-03-03T12:47:29.117Z,1.50
2019-03-03T12:50:11.765Z,1.50
2019-03-03T12:52:51.269Z,1.50
2019-03-03T12:55:21.681Z,1.40
2019-03-03T12:58:08.522Z,1.40
2019-03-03T13:00:41.654Z,1.37
2019-03-03T13:03:24.534Z,1.50
2019-03-03T13:06:01.136Z,1.40
2019-03-03T13:08:34.692Z,1.15
2019-03-03T13:11:05.101Z,1.50
2019-03-03T13:13:47.493Z,1.70
2019-03-03T13:16:20.635Z,1.67
2019-03-03T13:19:06.166Z,1.60
2019-03-03T13:21:39.235Z,1.70
2019-03-03T13:24:12.710Z,1.45
2019-03-03T13:26:46.106Z,1.60
2019-03-03T13:29:33.037Z,1.45
2019-03-03T13:32:03.442Z,1.72
2019-03-03T13:34:51.697Z,1.80
2019-03-03T13:37:27.821Z,1.90
2019-03-03T13:40:00.910Z,1.70
2019-03-03T13:42:34.081Z,1.60
2019-03-03T13:45:02.921Z,1.70
2019-03-03T13:47:31.749Z,1.60
2019-03-03T13:50:00.492Z,1.65
2019-03-03T13:52:29.249Z,1.50
2019-03-03T13:54:57.993Z,1.50
2019-03-03T13:57:26.750Z,1.70
2019-03-03T13:59:55.550Z,1.40
2019-03-03T14:02:24.313Z,1.47
2019-03-03T14:04:53.054Z,1.60
2019-03-03T14:07:21.821Z,1.40
2019-03-03T14:09:50.656Z,2.08
2019-03-03T14:12:19.389Z,1.70
2019-03-03T14:14:48.150Z,2.10
2019-03-03T14:17:16.885Z,1.50
2019-03-03T14:19:45.654Z,1.40
2019-03-03T14:22:14.469Z,1.25
2019-03-03T14:24:43.246Z,1.32
2019-03-03T14:27:12.055Z,1.55
2019-03-03T14:29:40.816Z,1.47
2019-03-03T14:32:09.549Z,1.50
2019-03-03T14:34:38.405Z,1.60
2019-03-03T14:37:07.155Z,1.45
2019-03-03T14:39:37.095Z,1.67
2019-03-03T14:42:06.417Z,1.40
2019-03-03T14:44:35.186Z,1.30
2019-03-03T14:47:03.985Z,1.10
2019-03-03T14:49:32.789Z,1.60
2019-03-03T14:52:01.555Z,1.40
2019-03-03T14:54:30.286Z,1.40
2019-03-03T14:56:59.141Z,2.15
2019-03-03T14:59:27.875Z,1.60
2019-03-03T15:01:56.643Z,1.40
2019-03-03T15:04:25.375Z,1.60
2019-03-03T15:06:54.193Z,1.40
2019-03-03T15:09:23.497Z,1.40
2019-03-03T15:11:52.481Z,1.42
2019-03-03T15:14:21.209Z,1.30
2019-03-03T15:16:49.991Z,1.32
2019-03-03T15:19:18.822Z,1.52
2019-03-03T15:21:47.594Z,1.40
2019-03-03T15:24:16.419Z,1.52
2019-03-03T15:26:45.233Z,1.35
2019-03-03T15:29:14.098Z,1.40
2019-03-03T15:31:42.925Z,1.10
2019-03-03T15:34:11.693Z,1.53
2019-03-03T15:36:41.138Z,1.23
2019-03-03T15:39:10.202Z,1.27
2019-03-03T15:41:39.030Z,1.30
2019-03-03T15:44:07.898Z,1.10
2019-03-03T15:46:36.631Z,1.42
2019-03-03T15:49:05.509Z,1.00
2019-03-03T15:51:34.238Z,1.20
2019-03-03T15:54:03.105Z,1.10
2019-03-03T15:56:31.861Z,1.47
2019-03-03T15:59:00.669Z,1.00
2019-03-03T16:01:29.465Z,1.05
2019-03-03T16:03:58.209Z,1.17
2019-03-03T16:06:26.973Z,1.40
2019-03-03T16:08:55.709Z,1.20
2019-03-03T16:11:24.513Z,1.22
2019-03-03T16:13:53.250Z,1.20
2019-03-03T16:16:22.015Z,1.12
2019-03-03T16:18:52.213Z,1.10
2019-03-03T16:21:21.021Z,1.10
2019-03-03T16:23:49.767Z,1.25
2019-03-03T16:26:18.538Z,1.40
2019-03-03T16:28:47.270Z,1.22
2019-03-03T16:31:16.006Z,1.40
2019-03-03T16:33:44.769Z,1.25
2019-03-03T16:36:13.504Z,1.27
2019-03-03T16:38:42.306Z,1.17
2019-03-03T16:41:11.050Z,1.22
2019-03-03T16:43:39.811Z,1.40
2019-03-03T16:46:08.542Z,1.30
2019-03-03T16:48:37.354Z,1.40
2019-03-03T16:51:06.085Z,1.20
2019-03-03T16:53:34.854Z,1.20
2019-03-03T16:56:03.692Z,1.30
2019-03-03T16:58:32.465Z,1.30
2019-03-03T17:01:01.198Z,1.27
2019-03-03T17:03:29.965Z,1.35
2019-03-03T17:05:58.701Z,1.25
2019-03-03T17:08:29.973Z,1.10
2019-03-03T17:10:58.718Z,1.10
2019-03-03T17:13:27.562Z,1.40
2019-03-03T17:15:56.297Z,1.47
2019-03-03T17:18:25.157Z,1.50
2019-03-03T17:20:53.897Z,1.40
2019-03-03T17:23:22.837Z,1.40
2019-03-03T17:25:51.597Z,1.57
2019-03-03T17:28:20.418Z,1.52
2019-03-03T17:30:49.182Z,1.30
2019-03-03T17:33:17.918Z,1.22
2019-03-03T17:35:46.814Z,1.47
2019-03-03T17:38:15.493Z,1.57
2019-03-03T17:40:44.352Z,1.50
2019-03-03T17:43:13.085Z,1.30
2019-03-03T17:45:41.942Z,1.33
2019-03-03T17:48:10.675Z,1.50
2019-03-03T17:50:39.450Z,1.52
2019-03-03T17:53:08.294Z,1.60
2019-03-03T17:55:37.058Z,1.50
2019-03-03T17:58:05.833Z,1.60
2019-03-03T18:00:42.258Z,1.72
2019-03-03T18:03:11.061Z,1.77
2019-03-03T18:05:39.904Z,1.55
2019-03-03T18:08:08.666Z,1.75
2019-03-03T18:10:37.426Z,1.70
2019-03-03T18:13:06.190Z,1.80
2019-03-03T18:15:34.960Z,1.53
2019-03-03T18:18:03.737Z,1.70
2019-03-03T18:20:32.481Z,1.82
2019-03-03T18:23:01.249Z,2.10
2019-03-03T18:25:30.000Z,1.87
2019-03-03T18:27:58.764Z,2.10
2019-03-03T18:30:30.248Z,1.77
2019-03-03T18:32:59.016Z,1.92
2019-03-03T18:35:27.749Z,1.60
2019-03-03T18:37:56.521Z,1.62
2019-03-03T18:40:26.055Z,1.60
2019-03-03T18:42:54.818Z,1.60
2019-03-03T18:45:24.061Z,1.50
2019-03-03T18:47:52.886Z,1.98
2019-03-03T18:50:29.591Z,1.92
2019-03-03T18:52:59.941Z,1.72
2019-03-03T18:55:28.958Z,1.85
2019-03-03T18:57:57.870Z,1.60
2019-03-03T19:00:28.700Z,1.82
2019-03-03T19:02:58.369Z,1.75
2019-03-03T19:05:27.397Z,1.85
2019-03-03T19:07:56.302Z,1.50
2019-03-03T19:10:29.742Z,1.65
2019-03-03T19:12:58.586Z,2.00
2019-03-03T19:15:27.445Z,1.75
2019-03-03T19:17:56.174Z,1.70
2019-03-03T19:20:24.934Z,1.90
2019-03-03T19:22:53.733Z,1.62
2019-03-03T19:25:22.530Z,1.70
2019-03-03T19:27:51.325Z,1.60
2019-03-03T19:30:28.089Z,1.70
2019-03-03T19:33:06.193Z,1.60
2019-03-03T19:35:34.957Z,1.80
2019-03-03T19:38:03.869Z,1.75
2019-03-03T19:40:32.645Z,1.80
2019-03-03T19:43:01.374Z,1.77
2019-03-03T19:45:38.273Z,1.77
2019-03-03T19:48:07.805Z,1.98
2019-03-03T19:50:36.642Z,2.00
2019-03-03T19:53:06.067Z,1.87
2019-03-03T19:55:34.869Z,1.95
2019-03-03T19:58:04.006Z,2.10
2019-03-03T20:00:38.772Z,2.20
2019-03-03T20:03:07.260Z,2.20
2019-03-03T20:05:36.140Z,2.00
2019-03-03T20:08:05.326Z,2.08
2019-03-03T20:10:34.328Z,2.10
2019-03-03T20:13:03.190Z,1.98
2019-03-03T20:15:31.924Z,1.90
2019-03-03T20:18:00.686Z,1.98
2019-03-03T20:20:29.422Z,1.90
2019-03-03T20:22:58.234Z,1.87
2019-03-03T20:25:27.041Z,1.82
2019-03-03T20:27:55.806Z,2.02
2019-03-03T20:30:25.618Z,1.87
2019-03-03T20:32:54.397Z,2.10
2019-03-03T20:35:23.162Z,1.98
2019-03-03T20:37:52.122Z,1.72
2019-03-03T20:40:23.127Z,1.90
2019-03-03T20:42:52.262Z,1.80
2019-03-03T20:45:32.949Z,1.75
2019-03-03T20:48:01.737Z,1.70
2019-03-03T20:50:30.498Z,2.00
2019-03-03T20:52:59.224Z,1.70
2019-03-03T20:55:29.707Z,1.65
2019-03-03T20:57:59.515Z,1.50
2019-03-03T21:00:29.381Z,1.67
2019-03-03T21:02:58.323Z,1.50
2019-03-03T21:05:27.499Z,1.50
2019-03-03T21:07:56.626Z,1.32
2019-03-03T21:10:26.809Z,1.50
2019-03-03T21:12:55.543Z,1.37
2019-03-03T21:15:26.350Z,1.32
2019-03-03T21:17:54.846Z,1.50
2019-03-03T21:20:24.133Z,1.50
2019-03-03T21:22:52.934Z,1.40
2019-03-03T21:25:21.779Z,1.40
2019-03-03T21:27:50.509Z,1.80
2019-03-03T21:30:23.932Z,1.30
2019-03-03T21:32:52.826Z,1.15
2019-03-03T21:35:21.813Z,2.02
2019-03-03T21:37:50.624Z,2.30
2019-03-03T21:40:25.533Z,1.10
2019-03-03T21:42:54.297Z,1.40
2019-03-03T21:45:28.678Z,1.40
2019-03-03T21:47:57.645Z,1.70
2019-03-03T21:50:27.978Z,1.87
2019-03-03T21:52:56.780Z,1.80
2019-03-03T21:55:25.650Z,1.70
2019-03-03T21:57:54.471Z,1.92
2019-03-03T22:00:26.213Z,1.80
2019-03-03T22:02:55.001Z,1.85
2019-03-03T22:05:23.805Z,1.47
2019-03-03T22:07:52.685Z,1.60
2019-03-03T22:10:23.066Z,1.45
2019-03-03T22:12:51.833Z,1.60
2019-03-03T22:15:20.653Z,1.50
2019-03-03T22:17:49.414Z,1.47
2019-03-03T22:20:18.220Z,1.72
2019-03-03T22:22:46.986Z,1.60
2019-03-03T22:25:15.813Z,1.55
2019-03-03T22:27:44.638Z,1.50
2019-03-03T22:30:18.393Z,1.37
2019-03-03T22:32:47.165Z,1.40
2019-03-03T22:35:16.231Z,1.40
2019-03-03T22:37:44.957Z,1.40
2019-03-03T22:40:21.782Z,1.60
2019-03-03T22:42:50.663Z,1.40
2019-03-03T22:45:19.720Z,1.40
2019-03-03T22:47:50.307Z,1.27
2019-03-03T22:50:22.404Z,1.42
2019-03-03T22:52:51.124Z,1.40
2019-03-03T22:55:21.740Z,1.47
2019-03-03T22:57:50.468Z,1.70
2019-03-03T23:00:44.442Z,1.52
2019-03-03T23:03:16.746Z,1.60
2019-03-03T23:05:57.410Z,1.80
2019-03-03T23:08:29.084Z,1.50
2019-03-03T23:11:20.175Z,1.42
2019-03-03T23:14:00.616Z,1.45
2019-03-03T23:16:34.981Z,1.50
2019-03-03T23:19:24.570Z,1.50
2019-03-03T23:21:56.353Z,1.67
2019-03-03T23:24:40.086Z,1.50
2019-03-03T23:27:08.845Z,1.45
2019-03-03T23:29:37.622Z,1.90
2019-03-03T23:32:06.376Z,1.65
2019-03-03T23:34:35.200Z,1.70
2019-03-03T23:37:04.002Z,1.70
2019-03-03T23:39:32.761Z,1.85
2019-03-03T23:42:01.562Z,1.70
2019-03-03T23:44:30.259Z,1.80
2019-03-03T23:46:59.038Z,1.98
2019-03-03T23:49:27.800Z,1.60
2019-03-03T23:51:56.532Z,1.67
2019-03-03T23:54:25.380Z,1.60
2019-03-03T23:56:54.120Z,1.70
2019-03-03T23:59:22.883Z,1.67
